sensor_id;sensor_type;location;lat;lon;timestamp;P1;durP1;ratioP1;P2;durP2;ratioP2
9459;SDS011;4768;42.664;23.240;2023-07-22T00:00:22;10.82;;;4.60;;
9459;SDS011;4768;42.664;23.240;2023-07-22T00:02:49;8.25;;;4.15;;
9459;SDS011;4768;42.664;23.240;2023-07-22T00:05:15;7.22;;;4.47;;
9459;SDS011;4768;42.664;23.240;2023-07-22T00:07:47;7.00;;;4.45;;
9459;SDS011;4768;42.664;23.240;2023-07-22T00:10:15;4.90;;;3.58;;
9459;SDS011;4768;42.664;23.240;2023-07-22T00:12:42;5.93;;;4.50;;
9459;SDS011;4768;42.664;23.240;2023-07-22T00:15:08;7.70;;;4.13;;
9459;SDS011;4768;42.664;23.240;2023-07-22T00:17:37;6.13;;;4.32;;
9459;SDS011;4768;42.664;23.240;2023-07-22T00:20:03;10.20;;;4.20;;
9459;SDS011;4768;42.664;23.240;2023-07-22T00:22:30;7.00;;;3.83;;
9459;SDS011;4768;42.664;23.240;2023-07-22T00:24:57;6.07;;;4.25;;
9459;SDS011;4768;42.664;23.240;2023-07-22T00:27:26;6.60;;;3.97;;
9459;SDS011;4768;42.664;23.240;2023-07-22T00:29:52;7.40;;;3.92;;
9459;SDS011;4768;42.664;23.240;2023-07-22T00:32:19;9.13;;;4.55;;
9459;SDS011;4768;42.664;23.240;2023-07-22T00:34:45;6.75;;;4.50;;
9459;SDS011;4768;42.664;23.240;2023-07-22T00:37:12;6.85;;;4.38;;
9459;SDS011;4768;42.664;23.240;2023-07-22T00:39:38;10.20;;;4.13;;
9459;SDS011;4768;42.664;23.240;2023-07-22T00:42:05;5.68;;;4.07;;
9459;SDS011;4768;42.664;23.240;2023-07-22T00:44:35;8.15;;;4.43;;
9459;SDS011;4768;42.664;23.240;2023-07-22T00:47:02;6.90;;;4.80;;
9459;SDS011;4768;42.664;23.240;2023-07-22T00:49:29;7.00;;;4.35;;
9459;SDS011;4768;42.664;23.240;2023-07-22T00:51:56;8.23;;;4.13;;
9459;SDS011;4768;42.664;23.240;2023-07-22T00:54:23;7.07;;;4.30;;
9459;SDS011;4768;42.664;23.240;2023-07-22T00:56:50;7.28;;;4.30;;
9459;SDS011;4768;42.664;23.240;2023-07-22T00:59:16;9.48;;;4.57;;
9459;SDS011;4768;42.664;23.240;2023-07-22T01:01:44;10.20;;;4.50;;
9459;SDS011;4768;42.664;23.240;2023-07-22T01:04:13;6.97;;;4.27;;
9459;SDS011;4768;42.664;23.240;2023-07-22T01:06:40;7.03;;;4.30;;
9459;SDS011;4768;42.664;23.240;2023-07-22T01:09:07;8.83;;;4.43;;
9459;SDS011;4768;42.664;23.240;2023-07-22T01:11:34;8.00;;;4.38;;
9459;SDS011;4768;42.664;23.240;2023-07-22T01:14:00;9.03;;;4.63;;
9459;SDS011;4768;42.664;23.240;2023-07-22T01:16:27;7.23;;;4.30;;
9459;SDS011;4768;42.664;23.240;2023-07-22T01:18:55;7.10;;;4.60;;
9459;SDS011;4768;42.664;23.240;2023-07-22T01:21:22;5.20;;;4.13;;
9459;SDS011;4768;42.664;23.240;2023-07-22T01:23:50;10.40;;;4.20;;
9459;SDS011;4768;42.664;23.240;2023-07-22T01:26:17;7.27;;;4.07;;
9459;SDS011;4768;42.664;23.240;2023-07-22T01:28:44;7.50;;;4.33;;
9459;SDS011;4768;42.664;23.240;2023-07-22T01:31:10;6.77;;;4.13;;
9459;SDS011;4768;42.664;23.240;2023-07-22T01:33:37;7.20;;;4.47;;
9459;SDS011;4768;42.664;23.240;2023-07-22T01:36:04;6.83;;;4.10;;
9459;SDS011;4768;42.664;23.240;2023-07-22T01:38:31;8.70;;;4.77;;
9459;SDS011;4768;42.664;23.240;2023-07-22T01:40:58;5.53;;;3.90;;
9459;SDS011;4768;42.664;23.240;2023-07-22T01:43:25;6.43;;;4.53;;
9459;SDS011;4768;42.664;23.240;2023-07-22T01:45:51;6.43;;;4.50;;
9459;SDS011;4768;42.664;23.240;2023-07-22T01:48:18;6.57;;;4.47;;
9459;SDS011;4768;42.664;23.240;2023-07-22T01:50:44;10.73;;;4.93;;
9459;SDS011;4768;42.664;23.240;2023-07-22T01:53:12;8.17;;;4.93;;
9459;SDS011;4768;42.664;23.240;2023-07-22T01:55:39;7.43;;;4.60;;
9459;SDS011;4768;42.664;23.240;2023-07-22T01:58:06;7.97;;;4.67;;
9459;SDS011;4768;42.664;23.240;2023-07-22T02:00:33;6.43;;;4.30;;
9459;SDS011;4768;42.664;23.240;2023-07-22T02:02:59;6.93;;;4.20;;
9459;SDS011;4768;42.664;23.240;2023-07-22T02:05:26;7.70;;;4.53;;
9459;SDS011;4768;42.664;23.240;2023-07-22T02:07:54;7.17;;;4.97;;
9459;SDS011;4768;42.664;23.240;2023-07-22T02:10:21;12.33;;;5.20;;
9459;SDS011;4768;42.664;23.240;2023-07-22T02:12:48;5.43;;;4.13;;
9459;SDS011;4768;42.664;23.240;2023-07-22T02:15:15;7.23;;;4.60;;
9459;SDS011;4768;42.664;23.240;2023-07-22T02:17:42;6.23;;;4.50;;
9459;SDS011;4768;42.664;23.240;2023-07-22T02:20:08;8.40;;;4.80;;
9459;SDS011;4768;42.664;23.240;2023-07-22T02:22:35;9.37;;;4.83;;
9459;SDS011;4768;42.664;23.240;2023-07-22T02:25:02;9.50;;;4.40;;
9459;SDS011;4768;42.664;23.240;2023-07-22T02:27:29;6.50;;;4.53;;
9459;SDS011;4768;42.664;23.240;2023-07-22T02:29:55;7.10;;;4.83;;
9459;SDS011;4768;42.664;23.240;2023-07-22T02:32:23;5.63;;;4.70;;
9459;SDS011;4768;42.664;23.240;2023-07-22T02:34:50;7.33;;;4.17;;
9459;SDS011;4768;42.664;23.240;2023-07-22T02:37:16;5.53;;;4.73;;
9459;SDS011;4768;42.664;23.240;2023-07-22T02:39:43;6.97;;;4.83;;
9459;SDS011;4768;42.664;23.240;2023-07-22T02:42:09;9.47;;;4.97;;
9459;SDS011;4768;42.664;23.240;2023-07-22T02:44:36;6.67;;;4.67;;
9459;SDS011;4768;42.664;23.240;2023-07-22T02:47:03;6.77;;;4.97;;
9459;SDS011;4768;42.664;23.240;2023-07-22T02:49:31;11.53;;;5.10;;
9459;SDS011;4768;42.664;23.240;2023-07-22T02:51:57;5.77;;;4.73;;
9459;SDS011;4768;42.664;23.240;2023-07-22T02:54:24;6.50;;;5.27;;
9459;SDS011;4768;42.664;23.240;2023-07-22T02:56:50;7.37;;;4.70;;
9459;SDS011;4768;42.664;23.240;2023-07-22T02:59:16;7.10;;;4.70;;
9459;SDS011;4768;42.664;23.240;2023-07-22T03:01:43;8.37;;;4.87;;
9459;SDS011;4768;42.664;23.240;2023-07-22T03:04:09;7.93;;;4.67;;
9459;SDS011;4768;42.664;23.240;2023-07-22T03:06:39;7.00;;;4.57;;
9459;SDS011;4768;42.664;23.240;2023-07-22T03:09:07;9.67;;;5.17;;
9459;SDS011;4768;42.664;23.240;2023-07-22T03:11:33;7.50;;;4.83;;
9459;SDS011;4768;42.664;23.240;2023-07-22T03:14:00;6.47;;;4.47;;
9459;SDS011;4768;42.664;23.240;2023-07-22T03:16:27;6.13;;;4.43;;
9459;SDS011;4768;42.664;23.240;2023-07-22T03:18:54;8.20;;;4.30;;
9459;SDS011;4768;42.664;23.240;2023-07-22T03:21:20;8.27;;;4.60;;
9459;SDS011;4768;42.664;23.240;2023-07-22T03:23:48;9.57;;;4.37;;
9459;SDS011;4768;42.664;23.240;2023-07-22T03:26:15;5.27;;;4.53;;
9459;SDS011;4768;42.664;23.240;2023-07-22T03:28:42;9.37;;;4.60;;
9459;SDS011;4768;42.664;23.240;2023-07-22T03:31:08;7.00;;;4.43;;
9459;SDS011;4768;42.664;23.240;2023-07-22T03:33:35;9.40;;;4.93;;
9459;SDS011;4768;42.664;23.240;2023-07-22T03:36:01;11.30;;;4.27;;
9459;SDS011;4768;42.664;23.240;2023-07-22T03:38:28;6.53;;;4.77;;
9459;SDS011;4768;42.664;23.240;2023-07-22T03:40:56;7.60;;;4.47;;
9459;SDS011;4768;42.664;23.240;2023-07-22T03:43:22;7.43;;;4.60;;
9459;SDS011;4768;42.664;23.240;2023-07-22T03:45:49;10.07;;;5.10;;
9459;SDS011;4768;42.664;23.240;2023-07-22T03:48:15;8.83;;;4.87;;
9459;SDS011;4768;42.664;23.240;2023-07-22T03:50:41;9.40;;;4.97;;
9459;SDS011;4768;42.664;23.240;2023-07-22T03:53:08;8.47;;;4.93;;
9459;SDS011;4768;42.664;23.240;2023-07-22T03:55:34;12.80;;;4.37;;
9459;SDS011;4768;42.664;23.240;2023-07-22T03:58:02;8.67;;;4.80;;
9459;SDS011;4768;42.664;23.240;2023-07-22T04:00:29;8.73;;;4.50;;
9459;SDS011;4768;42.664;23.240;2023-07-22T04:02:56;10.80;;;4.87;;
9459;SDS011;4768;42.664;23.240;2023-07-22T04:05:22;9.17;;;5.00;;
9459;SDS011;4768;42.664;23.240;2023-07-22T04:07:49;12.60;;;4.73;;
9459;SDS011;4768;42.664;23.240;2023-07-22T04:10:15;7.15;;;4.78;;
9459;SDS011;4768;42.664;23.240;2023-07-22T04:12:42;8.88;;;4.75;;
9459;SDS011;4768;42.664;23.240;2023-07-22T04:15:10;7.80;;;5.07;;
9459;SDS011;4768;42.664;23.240;2023-07-22T04:17:37;10.57;;;5.78;;
9459;SDS011;4768;42.664;23.240;2023-07-22T04:20:04;10.52;;;4.97;;
9459;SDS011;4768;42.664;23.240;2023-07-22T04:22:33;10.82;;;6.10;;
9459;SDS011;4768;42.664;23.240;2023-07-22T04:25:00;8.30;;;5.13;;
9459;SDS011;4768;42.664;23.240;2023-07-22T04:27:26;10.07;;;4.85;;
9459;SDS011;4768;42.664;23.240;2023-07-22T04:29:53;8.43;;;5.95;;
9459;SDS011;4768;42.664;23.240;2023-07-22T04:32:21;10.57;;;5.25;;
9459;SDS011;4768;42.664;23.240;2023-07-22T04:34:48;7.35;;;5.05;;
9459;SDS011;4768;42.664;23.240;2023-07-22T04:37:14;11.80;;;5.55;;
9459;SDS011;4768;42.664;23.240;2023-07-22T04:39:42;7.32;;;4.47;;
9459;SDS011;4768;42.664;23.240;2023-07-22T04:42:08;7.60;;;5.20;;
9459;SDS011;4768;42.664;23.240;2023-07-22T04:44:35;5.93;;;4.50;;
9459;SDS011;4768;42.664;23.240;2023-07-22T04:47:01;8.93;;;4.82;;
9459;SDS011;4768;42.664;23.240;2023-07-22T04:49:29;6.13;;;4.63;;
9459;SDS011;4768;42.664;23.240;2023-07-22T04:51:55;6.65;;;4.85;;
9459;SDS011;4768;42.664;23.240;2023-07-22T04:54:22;11.80;;;5.88;;
9459;SDS011;4768;42.664;23.240;2023-07-22T04:56:48;10.18;;;6.30;;
9459;SDS011;4768;42.664;23.240;2023-07-22T04:59:15;10.93;;;5.68;;
9459;SDS011;4768;42.664;23.240;2023-07-22T05:01:41;14.07;;;5.70;;
9459;SDS011;4768;42.664;23.240;2023-07-22T05:04:08;13.48;;;5.95;;
9459;SDS011;4768;42.664;23.240;2023-07-22T05:06:36;7.00;;;5.15;;
9459;SDS011;4768;42.664;23.240;2023-07-22T05:09:03;7.65;;;4.55;;
9459;SDS011;4768;42.664;23.240;2023-07-22T05:11:29;8.57;;;5.00;;
9459;SDS011;4768;42.664;23.240;2023-07-22T05:13:56;8.73;;;5.03;;
9459;SDS011;4768;42.664;23.240;2023-07-22T05:16:22;9.70;;;4.60;;
9459;SDS011;4768;42.664;23.240;2023-07-22T05:18:49;8.32;;;4.88;;
9459;SDS011;4768;42.664;23.240;2023-07-22T05:21:15;8.10;;;5.20;;
9459;SDS011;4768;42.664;23.240;2023-07-22T05:23:43;4.55;;;4.10;;
9459;SDS011;4768;42.664;23.240;2023-07-22T05:26:10;7.32;;;4.72;;
9459;SDS011;4768;42.664;23.240;2023-07-22T05:28:36;6.72;;;4.50;;
9459;SDS011;4768;42.664;23.240;2023-07-22T05:31:04;7.60;;;5.18;;
9459;SDS011;4768;42.664;23.240;2023-07-22T05:33:31;6.47;;;4.72;;
9459;SDS011;4768;42.664;23.240;2023-07-22T05:35:58;6.95;;;4.97;;
9459;SDS011;4768;42.664;23.240;2023-07-22T05:38:24;10.43;;;5.40;;
9459;SDS011;4768;42.664;23.240;2023-07-22T05:40:52;9.68;;;5.60;;
9459;SDS011;4768;42.664;23.240;2023-07-22T05:43:19;8.63;;;5.07;;
9459;SDS011;4768;42.664;23.240;2023-07-22T05:45:45;7.47;;;5.13;;
9459;SDS011;4768;42.664;23.240;2023-07-22T05:48:12;7.03;;;5.15;;
9459;SDS011;4768;42.664;23.240;2023-07-22T05:50:38;7.75;;;5.50;;
9459;SDS011;4768;42.664;23.240;2023-07-22T05:53:05;10.40;;;5.80;;
9459;SDS011;4768;42.664;23.240;2023-07-22T05:55:31;12.20;;;6.55;;
9459;SDS011;4768;42.664;23.240;2023-07-22T05:57:59;11.05;;;6.10;;
9459;SDS011;4768;42.664;23.240;2023-07-22T06:00:30;12.95;;;5.97;;
9459;SDS011;4768;42.664;23.240;2023-07-22T06:02:56;6.68;;;5.47;;
9459;SDS011;4768;42.664;23.240;2023-07-22T06:05:23;10.52;;;5.60;;
9459;SDS011;4768;42.664;23.240;2023-07-22T06:07:49;10.65;;;5.75;;
9459;SDS011;4768;42.664;23.240;2023-07-22T06:10:16;6.80;;;5.22;;
9459;SDS011;4768;42.664;23.240;2023-07-22T06:12:42;7.60;;;5.53;;
9459;SDS011;4768;42.664;23.240;2023-07-22T06:15:10;8.88;;;5.35;;
9459;SDS011;4768;42.664;23.240;2023-07-22T06:17:37;8.73;;;6.20;;
9459;SDS011;4768;42.664;23.240;2023-07-22T06:20:04;7.15;;;6.13;;
9459;SDS011;4768;42.664;23.240;2023-07-22T06:22:30;13.23;;;6.50;;
9459;SDS011;4768;42.664;23.240;2023-07-22T06:24:57;14.57;;;6.32;;
9459;SDS011;4768;42.664;23.240;2023-07-22T06:27:23;8.85;;;6.43;;
9459;SDS011;4768;42.664;23.240;2023-07-22T06:29:50;9.88;;;6.93;;
9459;SDS011;4768;42.664;23.240;2023-07-22T06:32:18;12.63;;;8.52;;
9459;SDS011;4768;42.664;23.240;2023-07-22T06:34:44;12.85;;;7.63;;
9459;SDS011;4768;42.664;23.240;2023-07-22T06:37:10;11.43;;;7.47;;
9459;SDS011;4768;42.664;23.240;2023-07-22T06:39:37;9.05;;;6.78;;
9459;SDS011;4768;42.664;23.240;2023-07-22T06:42:04;11.02;;;7.25;;
9459;SDS011;4768;42.664;23.240;2023-07-22T06:44:30;12.43;;;7.60;;
9459;SDS011;4768;42.664;23.240;2023-07-22T06:46:57;9.02;;;7.45;;
9459;SDS011;4768;42.664;23.240;2023-07-22T06:49:24;10.27;;;7.07;;
9459;SDS011;4768;42.664;23.240;2023-07-22T06:51:51;13.48;;;7.68;;
9459;SDS011;4768;42.664;23.240;2023-07-22T06:54:18;10.48;;;7.07;;
9459;SDS011;4768;42.664;23.240;2023-07-22T06:56:44;11.13;;;7.47;;
9459;SDS011;4768;42.664;23.240;2023-07-22T06:59:11;8.60;;;7.57;;
9459;SDS011;4768;42.664;23.240;2023-07-22T07:01:37;14.82;;;7.00;;
9459;SDS011;4768;42.664;23.240;2023-07-22T07:04:04;11.20;;;7.68;;
9459;SDS011;4768;42.664;23.240;2023-07-22T07:06:32;10.50;;;7.50;;
9459;SDS011;4768;42.664;23.240;2023-07-22T07:08:59;11.23;;;7.82;;
9459;SDS011;4768;42.664;23.240;2023-07-22T07:11:26;9.82;;;7.40;;
9459;SDS011;4768;42.664;23.240;2023-07-22T07:13:54;13.77;;;8.05;;
9459;SDS011;4768;42.664;23.240;2023-07-22T07:16:20;12.63;;;7.82;;
9459;SDS011;4768;42.664;23.240;2023-07-22T07:18:48;11.15;;;7.75;;
9459;SDS011;4768;42.664;23.240;2023-07-22T07:21:14;11.80;;;7.47;;
9459;SDS011;4768;42.664;23.240;2023-07-22T07:23:42;12.57;;;8.10;;
9459;SDS011;4768;42.664;23.240;2023-07-22T07:26:09;10.70;;;8.13;;
9459;SDS011;4768;42.664;23.240;2023-07-22T07:28:35;12.55;;;7.40;;
9459;SDS011;4768;42.664;23.240;2023-07-22T07:31:02;12.65;;;7.90;;
9459;SDS011;4768;42.664;23.240;2023-07-22T07:33:28;10.02;;;7.25;;
9459;SDS011;4768;42.664;23.240;2023-07-22T07:35:55;9.70;;;7.00;;
9459;SDS011;4768;42.664;23.240;2023-07-22T07:38:21;8.82;;;6.28;;
9459;SDS011;4768;42.664;23.240;2023-07-22T07:40:52;10.48;;;6.60;;
9459;SDS011;4768;42.664;23.240;2023-07-22T07:43:19;10.02;;;6.88;;
9459;SDS011;4768;42.664;23.240;2023-07-22T07:45:45;9.43;;;6.80;;
9459;SDS011;4768;42.664;23.240;2023-07-22T07:48:12;10.50;;;7.50;;
9459;SDS011;4768;42.664;23.240;2023-07-22T07:50:38;12.23;;;7.60;;
9459;SDS011;4768;42.664;23.240;2023-07-22T07:53:04;9.57;;;7.22;;
9459;SDS011;4768;42.664;23.240;2023-07-22T07:55:31;10.32;;;7.47;;
9459;SDS011;4768;42.664;23.240;2023-07-22T07:57:59;12.80;;;7.05;;
9459;SDS011;4768;42.664;23.240;2023-07-22T08:00:25;9.73;;;6.88;;
9459;SDS011;4768;42.664;23.240;2023-07-22T08:02:52;10.35;;;6.90;;
9459;SDS011;4768;42.664;23.240;2023-07-22T08:05:20;10.63;;;6.97;;
9459;SDS011;4768;42.664;23.240;2023-07-22T08:07:46;12.65;;;7.15;;
9459;SDS011;4768;42.664;23.240;2023-07-22T08:10:13;8.65;;;7.13;;
9459;SDS011;4768;42.664;23.240;2023-07-22T08:12:39;11.63;;;7.80;;
9459;SDS011;4768;42.664;23.240;2023-07-22T08:15:08;8.60;;;7.60;;
9459;SDS011;4768;42.664;23.240;2023-07-22T08:17:34;12.13;;;7.45;;
9459;SDS011;4768;42.664;23.240;2023-07-22T08:20:01;11.25;;;7.28;;
9459;SDS011;4768;42.664;23.240;2023-07-22T08:22:27;8.13;;;6.60;;
9459;SDS011;4768;42.664;23.240;2023-07-22T08:24:54;10.73;;;7.53;;
9459;SDS011;4768;42.664;23.240;2023-07-22T08:27:20;13.13;;;7.32;;
9459;SDS011;4768;42.664;23.240;2023-07-22T08:29:48;16.75;;;7.43;;
9459;SDS011;4768;42.664;23.240;2023-07-22T08:32:16;11.43;;;7.25;;
9459;SDS011;4768;42.664;23.240;2023-07-22T08:34:43;9.40;;;7.53;;
9459;SDS011;4768;42.664;23.240;2023-07-22T08:37:09;12.65;;;7.53;;
9459;SDS011;4768;42.664;23.240;2023-07-22T08:39:36;8.43;;;7.32;;
9459;SDS011;4768;42.664;23.240;2023-07-22T08:42:03;9.15;;;7.25;;
9459;SDS011;4768;42.664;23.240;2023-07-22T08:44:31;18.10;;;7.68;;
9459;SDS011;4768;42.664;23.240;2023-07-22T08:47:00;9.25;;;7.07;;
9459;SDS011;4768;42.664;23.240;2023-07-22T08:49:30;10.05;;;7.38;;
9459;SDS011;4768;42.664;23.240;2023-07-22T08:51:57;14.32;;;7.43;;
9459;SDS011;4768;42.664;23.240;2023-07-22T08:54:23;9.68;;;7.32;;
9459;SDS011;4768;42.664;23.240;2023-07-22T08:56:50;16.40;;;6.55;;
9459;SDS011;4768;42.664;23.240;2023-07-22T08:59:17;13.55;;;7.00;;
9459;SDS011;4768;42.664;23.240;2023-07-22T09:01:44;12.43;;;7.20;;
9459;SDS011;4768;42.664;23.240;2023-07-22T09:04:10;13.52;;;7.28;;
9459;SDS011;4768;42.664;23.240;2023-07-22T09:06:38;8.45;;;6.68;;
9459;SDS011;4768;42.664;23.240;2023-07-22T09:09:05;8.32;;;7.00;;
9459;SDS011;4768;42.664;23.240;2023-07-22T09:11:33;11.63;;;6.97;;
9459;SDS011;4768;42.664;23.240;2023-07-22T09:14:00;9.98;;;7.13;;
9459;SDS011;4768;42.664;23.240;2023-07-22T09:16:28;7.88;;;7.00;;
9459;SDS011;4768;42.664;23.240;2023-07-22T09:18:54;11.48;;;6.32;;
9459;SDS011;4768;42.664;23.240;2023-07-22T09:21:21;11.63;;;7.18;;
9459;SDS011;4768;42.664;23.240;2023-07-22T09:23:49;10.70;;;7.13;;
9459;SDS011;4768;42.664;23.240;2023-07-22T09:26:17;12.63;;;7.28;;
9459;SDS011;4768;42.664;23.240;2023-07-22T09:28:47;11.52;;;7.00;;
9459;SDS011;4768;42.664;23.240;2023-07-22T09:31:13;10.65;;;7.70;;
9459;SDS011;4768;42.664;23.240;2023-07-22T09:33:40;12.93;;;7.00;;
9459;SDS011;4768;42.664;23.240;2023-07-22T09:36:06;11.20;;;6.68;;
9459;SDS011;4768;42.664;23.240;2023-07-22T09:38:33;9.38;;;7.25;;
9459;SDS011;4768;42.664;23.240;2023-07-22T09:41:00;12.05;;;7.20;;
9459;SDS011;4768;42.664;23.240;2023-07-22T09:43:27;16.15;;;7.72;;
9459;SDS011;4768;42.664;23.240;2023-07-22T09:45:56;11.82;;;6.85;;
9459;SDS011;4768;42.664;23.240;2023-07-22T09:48:38;9.93;;;7.05;;
9459;SDS011;4768;42.664;23.240;2023-07-22T09:51:05;10.55;;;7.47;;
9459;SDS011;4768;42.664;23.240;2023-07-22T09:53:31;13.82;;;6.75;;
9459;SDS011;4768;42.664;23.240;2023-07-22T09:56:04;12.98;;;7.85;;
9459;SDS011;4768;42.664;23.240;2023-07-22T09:58:30;8.73;;;6.38;;
9459;SDS011;4768;42.664;23.240;2023-07-22T10:00:57;13.63;;;4.75;;
9459;SDS011;4768;42.664;23.240;2023-07-22T10:03:24;10.07;;;4.43;;
9459;SDS011;4768;42.664;23.240;2023-07-22T10:05:54;13.30;;;4.30;;
9459;SDS011;4768;42.664;23.240;2023-07-22T10:08:21;9.05;;;4.57;;
9459;SDS011;4768;42.664;23.240;2023-07-22T10:10:49;13.95;;;5.10;;
9459;SDS011;4768;42.664;23.240;2023-07-22T10:13:19;10.43;;;4.28;;
9459;SDS011;4768;42.664;23.240;2023-07-22T10:15:46;13.23;;;5.15;;
9459;SDS011;4768;42.664;23.240;2023-07-22T10:18:13;9.60;;;4.50;;
9459;SDS011;4768;42.664;23.240;2023-07-22T10:20:41;14.43;;;4.90;;
9459;SDS011;4768;42.664;23.240;2023-07-22T10:23:09;8.95;;;4.72;;
9459;SDS011;4768;42.664;23.240;2023-07-22T10:25:37;13.43;;;4.47;;
9459;SDS011;4768;42.664;23.240;2023-07-22T10:28:04;13.52;;;4.28;;
9459;SDS011;4768;42.664;23.240;2023-07-22T10:30:33;15.18;;;4.32;;
9459;SDS011;4768;42.664;23.240;2023-07-22T10:33:00;12.57;;;4.32;;
9459;SDS011;4768;42.664;23.240;2023-07-22T10:35:34;12.68;;;4.63;;
9459;SDS011;4768;42.664;23.240;2023-07-22T10:38:06;15.50;;;4.45;;
9459;SDS011;4768;42.664;23.240;2023-07-22T10:40:33;11.38;;;4.53;;
9459;SDS011;4768;42.664;23.240;2023-07-22T10:43:10;10.13;;;4.68;;
9459;SDS011;4768;42.664;23.240;2023-07-22T10:45:40;9.85;;;4.82;;
9459;SDS011;4768;42.664;23.240;2023-07-22T10:48:07;13.20;;;4.32;;
9459;SDS011;4768;42.664;23.240;2023-07-22T10:50:38;8.93;;;4.90;;
9459;SDS011;4768;42.664;23.240;2023-07-22T10:53:05;12.32;;;4.75;;
9459;SDS011;4768;42.664;23.240;2023-07-22T10:55:32;16.75;;;4.43;;
9459;SDS011;4768;42.664;23.240;2023-07-22T10:58:03;9.73;;;4.10;;
9459;SDS011;4768;42.664;23.240;2023-07-22T11:00:30;14.82;;;4.50;;
9459;SDS011;4768;42.664;23.240;2023-07-22T11:05:51;14.20;;;4.00;;
9459;SDS011;4768;42.664;23.240;2023-07-22T11:11:00;13.07;;;4.22;;
9459;SDS011;4768;42.664;23.240;2023-07-22T11:13:27;14.82;;;4.47;;
9459;SDS011;4768;42.664;23.240;2023-07-22T11:15:57;13.65;;;4.07;;
9459;SDS011;4768;42.664;23.240;2023-07-22T11:18:34;13.85;;;4.13;;
9459;SDS011;4768;42.664;23.240;2023-07-22T11:21:03;16.52;;;4.38;;
9459;SDS011;4768;42.664;23.240;2023-07-22T11:23:33;13.30;;;4.60;;
9459;SDS011;4768;42.664;23.240;2023-07-22T11:26:00;13.05;;;4.28;;
9459;SDS011;4768;42.664;23.240;2023-07-22T11:28:27;12.02;;;4.13;;
9459;SDS011;4768;42.664;23.240;2023-07-22T11:30:53;11.50;;;4.20;;
9459;SDS011;4768;42.664;23.240;2023-07-22T11:33:20;15.80;;;5.07;;
9459;SDS011;4768;42.664;23.240;2023-07-22T11:35:46;11.98;;;3.90;;
9459;SDS011;4768;42.664;23.240;2023-07-22T11:38:14;17.48;;;4.00;;
9459;SDS011;4768;42.664;23.240;2023-07-22T11:40:40;14.60;;;4.13;;
9459;SDS011;4768;42.664;23.240;2023-07-22T11:43:07;18.33;;;4.28;;
9459;SDS011;4768;42.664;23.240;2023-07-22T11:45:33;8.35;;;3.97;;
9459;SDS011;4768;42.664;23.240;2023-07-22T11:48:00;8.27;;;3.92;;
9459;SDS011;4768;42.664;23.240;2023-07-22T11:50:31;12.10;;;3.65;;
9459;SDS011;4768;42.664;23.240;2023-07-22T11:52:57;16.98;;;3.80;;
9459;SDS011;4768;42.664;23.240;2023-07-22T11:55:25;17.35;;;4.40;;
9459;SDS011;4768;42.664;23.240;2023-07-22T11:57:52;12.02;;;3.92;;
9459;SDS011;4768;42.664;23.240;2023-07-22T12:00:19;12.05;;;4.15;;
9459;SDS011;4768;42.664;23.240;2023-07-22T12:02:46;14.52;;;4.00;;
9459;SDS011;4768;42.664;23.240;2023-07-22T12:05:18;9.48;;;4.40;;
9459;SDS011;4768;42.664;23.240;2023-07-22T12:07:46;9.80;;;3.53;;
9459;SDS011;4768;42.664;23.240;2023-07-22T12:10:12;10.20;;;3.50;;
9459;SDS011;4768;42.664;23.240;2023-07-22T12:12:43;12.85;;;4.00;;
9459;SDS011;4768;42.664;23.240;2023-07-22T12:15:11;13.57;;;4.18;;
9459;SDS011;4768;42.664;23.240;2023-07-22T12:17:43;13.90;;;4.30;;
9459;SDS011;4768;42.664;23.240;2023-07-22T12:20:11;12.15;;;3.95;;
9459;SDS011;4768;42.664;23.240;2023-07-22T12:22:37;13.63;;;4.07;;
9459;SDS011;4768;42.664;23.240;2023-07-22T12:25:04;17.83;;;4.22;;
9459;SDS011;4768;42.664;23.240;2023-07-22T12:27:31;13.10;;;4.43;;
9459;SDS011;4768;42.664;23.240;2023-07-22T12:29:59;12.05;;;4.03;;
9459;SDS011;4768;42.664;23.240;2023-07-22T12:32:25;13.15;;;3.70;;
9459;SDS011;4768;42.664;23.240;2023-07-22T12:34:52;12.35;;;4.07;;
9459;SDS011;4768;42.664;23.240;2023-07-22T12:37:18;14.60;;;4.03;;
9459;SDS011;4768;42.664;23.240;2023-07-22T12:39:45;13.32;;;3.65;;
9459;SDS011;4768;42.664;23.240;2023-07-22T12:42:11;12.75;;;4.85;;
9459;SDS011;4768;42.664;23.240;2023-07-22T12:44:38;10.32;;;4.25;;
9459;SDS011;4768;42.664;23.240;2023-07-22T12:47:06;11.05;;;4.00;;
9459;SDS011;4768;42.664;23.240;2023-07-22T12:49:33;12.02;;;4.20;;
9459;SDS011;4768;42.664;23.240;2023-07-22T12:51:59;15.52;;;4.15;;
9459;SDS011;4768;42.664;23.240;2023-07-22T12:54:29;9.30;;;3.90;;
9459;SDS011;4768;42.664;23.240;2023-07-22T12:56:56;10.38;;;4.85;;
9459;SDS011;4768;42.664;23.240;2023-07-22T12:59:23;11.45;;;4.47;;
9459;SDS011;4768;42.664;23.240;2023-07-22T13:01:49;15.88;;;4.45;;
9459;SDS011;4768;42.664;23.240;2023-07-22T13:04:17;14.18;;;4.32;;
9459;SDS011;4768;42.664;23.240;2023-07-22T13:06:44;13.02;;;4.40;;
9459;SDS011;4768;42.664;23.240;2023-07-22T13:09:10;10.65;;;4.28;;
9459;SDS011;4768;42.664;23.240;2023-07-22T13:11:36;12.85;;;4.07;;
9459;SDS011;4768;42.664;23.240;2023-07-22T13:14:03;13.10;;;4.10;;
9459;SDS011;4768;42.664;23.240;2023-07-22T13:16:29;8.38;;;4.00;;
9459;SDS011;4768;42.664;23.240;2023-07-22T13:18:56;16.70;;;4.15;;
9459;SDS011;4768;42.664;23.240;2023-07-22T13:21:27;12.98;;;4.72;;
9459;SDS011;4768;42.664;23.240;2023-07-22T13:23:53;15.32;;;4.18;;
9459;SDS011;4768;42.664;23.240;2023-07-22T13:26:20;15.00;;;4.03;;
9459;SDS011;4768;42.664;23.240;2023-07-22T13:28:46;21.20;;;4.53;;
9459;SDS011;4768;42.664;23.240;2023-07-22T13:31:13;10.80;;;4.13;;
9459;SDS011;4768;42.664;23.240;2023-07-22T13:33:39;15.57;;;4.00;;
9459;SDS011;4768;42.664;23.240;2023-07-22T13:36:06;13.32;;;3.75;;
9459;SDS011;4768;42.664;23.240;2023-07-22T13:38:35;15.27;;;3.55;;
9459;SDS011;4768;42.664;23.240;2023-07-22T13:41:02;10.63;;;3.85;;
9459;SDS011;4768;42.664;23.240;2023-07-22T13:43:28;15.20;;;3.90;;
9459;SDS011;4768;42.664;23.240;2023-07-22T13:45:55;13.45;;;4.25;;
9459;SDS011;4768;42.664;23.240;2023-07-22T13:48:21;12.80;;;3.65;;
9459;SDS011;4768;42.664;23.240;2023-07-22T13:50:48;14.73;;;3.78;;
9459;SDS011;4768;42.664;23.240;2023-07-22T13:53:14;12.93;;;4.35;;
9459;SDS011;4768;42.664;23.240;2023-07-22T13:55:43;9.52;;;3.92;;
9459;SDS011;4768;42.664;23.240;2023-07-22T13:58:09;18.02;;;4.70;;
9459;SDS011;4768;42.664;23.240;2023-07-22T14:00:35;11.25;;;4.05;;
9459;SDS011;4768;42.664;23.240;2023-07-22T14:03:02;14.70;;;4.05;;
9459;SDS011;4768;42.664;23.240;2023-07-22T14:05:29;13.65;;;3.83;;
9459;SDS011;4768;42.664;23.240;2023-07-22T14:07:56;13.35;;;3.97;;
9459;SDS011;4768;42.664;23.240;2023-07-22T14:10:22;17.08;;;4.07;;
9459;SDS011;4768;42.664;23.240;2023-07-22T14:12:50;9.93;;;3.60;;
9459;SDS011;4768;42.664;23.240;2023-07-22T14:15:17;13.88;;;4.10;;
9459;SDS011;4768;42.664;23.240;2023-07-22T14:17:43;14.50;;;4.18;;
9459;SDS011;4768;42.664;23.240;2023-07-22T14:20:10;12.95;;;4.28;;
9459;SDS011;4768;42.664;23.240;2023-07-22T14:22:37;14.10;;;3.55;;
9459;SDS011;4768;42.664;23.240;2023-07-22T14:25:04;15.40;;;3.67;;
9459;SDS011;4768;42.664;23.240;2023-07-22T14:27:31;21.58;;;4.25;;
9459;SDS011;4768;42.664;23.240;2023-07-22T14:29:58;11.52;;;4.07;;
9459;SDS011;4768;42.664;23.240;2023-07-22T14:32:25;16.55;;;4.30;;
9459;SDS011;4768;42.664;23.240;2023-07-22T14:34:52;10.25;;;3.40;;
9459;SDS011;4768;42.664;23.240;2023-07-22T14:37:18;17.27;;;3.58;;
9459;SDS011;4768;42.664;23.240;2023-07-22T14:39:45;11.65;;;3.65;;
9459;SDS011;4768;42.664;23.240;2023-07-22T14:42:11;14.32;;;4.07;;
9459;SDS011;4768;42.664;23.240;2023-07-22T14:44:38;13.60;;;3.80;;
9459;SDS011;4768;42.664;23.240;2023-07-22T14:47:05;15.80;;;3.67;;
9459;SDS011;4768;42.664;23.240;2023-07-22T14:49:32;17.83;;;3.97;;
9459;SDS011;4768;42.664;23.240;2023-07-22T14:51:58;13.55;;;3.83;;
9459;SDS011;4768;42.664;23.240;2023-07-22T14:54:25;13.70;;;4.47;;
9459;SDS011;4768;42.664;23.240;2023-07-22T14:56:51;15.90;;;4.05;;